sensor_id;sensor_type;location;lat;lon;timestamp;temperature;humidity
7762;DHT22;3925;48.636;9.516;2023-02-01T00:00:31;4.60;99.90
7762;DHT22;3925;48.636;9.516;2023-02-01T00:02:59;4.60;99.90
7762;DHT22;3925;48.636;9.516;2023-02-01T00:05:26;4.60;99.90
7762;DHT22;3925;48.636;9.516;2023-02-01T00:07:53;4.70;99.90
7762;DHT22;3925;48.636;9.516;2023-02-01T00:10:20;4.70;99.90
7762;DHT22;3925;48.636;9.516;2023-02-01T00:12:47;4.50;99.90
7762;DHT22;3925;48.636;9.516;2023-02-01T00:15:14;4.50;99.90
7762;DHT22;3925;48.636;9.516;2023-02-01T00:17:42;4.50;99.90
7762;DHT22;3925;48.636;9.516;2023-02-01T00:20:10;4.50;99.90
7762;DHT22;3925;48.636;9.516;2023-02-01T00:22:37;4.50;99.90
7762;DHT22;3925;48.636;9.516;2023-02-01T00:25:05;4.40;99.90
7762;DHT22;3925;48.636;9.516;2023-02-01T00:27:32;4.50;99.90
7762;DHT22;3925;48.636;9.516;2023-02-01T00:29:59;4.30;99.90
7762;DHT22;3925;48.636;9.516;2023-02-01T00:32:26;4.40;99.90
7762;DHT22;3925;48.636;9.516;2023-02-01T00:34:54;4.30;99.90
7762;DHT22;3925;48.636;9.516;2023-02-01T00:37:21;4.40;99.90
7762;DHT22;3925;48.636;9.516;2023-02-01T00:39:48;4.30;99.90
7762;DHT22;3925;48.636;9.516;2023-02-01T00:42:15;4.30;99.90
7762;DHT22;3925;48.636;9.516;2023-02-01T00:44:42;4.30;99.90
7762;DHT22;3925;48.636;9.516;2023-02-01T00:47:09;4.30;99.90
7762;DHT22;3925;48.636;9.516;2023-02-01T00:49:36;4.30;99.90
7762;DHT22;3925;48.636;9.516;2023-02-01T00:52:04;4.40;99.90
7762;DHT22;3925;48.636;9.516;2023-02-01T00:54:32;4.40;99.90
7762;DHT22;3925;48.636;9.516;2023-02-01T00:57:00;4.40;99.90
7762;DHT22;3925;48.636;9.516;2023-02-01T00:59:26;4.50;99.90
7762;DHT22;3925;48.636;9.516;2023-02-01T01:01:53;4.50;99.90
7762;DHT22;3925;48.636;9.516;2023-02-01T01:04:20;4.50;99.90
7762;DHT22;3925;48.636;9.516;2023-02-01T01:06:47;4.50;99.90
7762;DHT22;3925;48.636;9.516;2023-02-01T01:09:15;4.50;99.90
7762;DHT22;3925;48.636;9.516;2023-02-01T01:11:42;4.50;99.90
7762;DHT22;3925;48.636;9.516;2023-02-01T01:14:09;4.50;99.90
7762;DHT22;3925;48.636;9.516;2023-02-01T01:16:37;4.60;99.90
7762;DHT22;3925;48.636;9.516;2023-02-01T01:19:04;4.60;99.90
7762;DHT22;3925;48.636;9.516;2023-02-01T01:21:32;4.60;99.90
7762;DHT22;3925;48.636;9.516;2023-02-01T01:23:59;4.60;99.90
7762;DHT22;3925;48.636;9.516;2023-02-01T01:26:29;4.70;99.90
7762;DHT22;3925;48.636;9.516;2023-02-01T01:28:56;4.60;99.90
7762;DHT22;3925;48.636;9.516;2023-02-01T01:31:23;4.70;99.90
7762;DHT22;3925;48.636;9.516;2023-02-01T01:33:52;4.70;99.90
7762;DHT22;3925;48.636;9.516;2023-02-01T01:36:20;4.60;99.90
7762;DHT22;3925;48.636;9.516;2023-02-01T01:38:47;4.70;99.90
7762;DHT22;3925;48.636;9.516;2023-02-01T01:41:16;4.70;99.90
7762;DHT22;3925;48.636;9.516;2023-02-01T01:43:50;4.80;99.90
7762;DHT22;3925;48.636;9.516;2023-02-01T01:46:18;4.80;99.90
7762;DHT22;3925;48.636;9.516;2023-02-01T01:48:48;4.70;99.90
7762;DHT22;3925;48.636;9.516;2023-02-01T01:51:20;4.70;99.90
7762;DHT22;3925;48.636;9.516;2023-02-01T01:53:55;4.70;99.90
7762;DHT22;3925;48.636;9.516;2023-02-01T01:56:24;4.80;99.90
7762;DHT22;3925;48.636;9.516;2023-02-01T01:58:53;4.80;99.90
7762;DHT22;3925;48.636;9.516;2023-02-01T02:01:20;4.80;99.90
7762;DHT22;3925;48.636;9.516;2023-02-01T02:03:47;4.80;99.90
7762;DHT22;3925;48.636;9.516;2023-02-01T02:06:21;4.80;99.90
7762;DHT22;3925;48.636;9.516;2023-02-01T02:08:50;5.00;99.90
7762;DHT22;3925;48.636;9.516;2023-02-01T02:11:17;4.90;99.90
7762;DHT22;3925;48.636;9.516;2023-02-01T02:13:46;4.90;99.90
7762;DHT22;3925;48.636;9.516;2023-02-01T02:16:28;4.80;99.90
7762;DHT22;3925;48.636;9.516;2023-02-01T02:19:32;4.90;99.90
7762;DHT22;3925;48.636;9.516;2023-02-01T02:22:22;4.90;99.90
7762;DHT22;3925;48.636;9.516;2023-02-01T02:25:11;4.80;99.90
7762;DHT22;3925;48.636;9.516;2023-02-01T02:27:48;4.80;99.90
7762;DHT22;3925;48.636;9.516;2023-02-01T02:33:33;4.90;99.90
7762;DHT22;3925;48.636;9.516;2023-02-01T02:36:09;4.90;99.90
7762;DHT22;3925;48.636;9.516;2023-02-01T02:38:43;4.90;99.90
7762;DHT22;3925;48.636;9.516;2023-02-01T02:41:16;4.90;99.90
7762;DHT22;3925;48.636;9.516;2023-02-01T02:44:02;4.90;99.90
7762;DHT22;3925;48.636;9.516;2023-02-01T02:46:50;4.90;99.90
7762;DHT22;3925;48.636;9.516;2023-02-01T02:49:40;4.90;99.90
7762;DHT22;3925;48.636;9.516;2023-02-01T02:52:12;5.00;99.90
7762;DHT22;3925;48.636;9.516;2023-02-01T02:54:59;5.00;99.90
7762;DHT22;3925;48.636;9.516;2023-02-01T02:57:32;4.90;99.90
7762;DHT22;3925;48.636;9.516;2023-02-01T03:00:20;4.90;99.90
7762;DHT22;3925;48.636;9.516;2023-02-01T03:03:04;4.90;99.90
7762;DHT22;3925;48.636;9.516;2023-02-01T03:05:51;5.00;99.90
7762;DHT22;3925;48.636;9.516;2023-02-01T03:08:19;5.00;99.90
7762;DHT22;3925;48.636;9.516;2023-02-01T03:10:54;4.90;99.90
7762;DHT22;3925;48.636;9.516;2023-02-01T03:13:28;5.00;99.90
7762;DHT22;3925;48.636;9.516;2023-02-01T03:16:00;5.00;99.90
7762;DHT22;3925;48.636;9.516;2023-02-01T03:18:33;5.00;99.90
7762;DHT22;3925;48.636;9.516;2023-02-01T03:21:06;5.00;99.90
7762;DHT22;3925;48.636;9.516;2023-02-01T03:23:36;5.00;99.90
7762;DHT22;3925;48.636;9.516;2023-02-01T03:26:07;5.00;99.90
7762;DHT22;3925;48.636;9.516;2023-02-01T03:28:37;4.90;99.90
7762;DHT22;3925;48.636;9.516;2023-02-01T03:31:07;5.00;99.90
7762;DHT22;3925;48.636;9.516;2023-02-01T03:33:34;4.90;99.90
7762;DHT22;3925;48.636;9.516;2023-02-01T03:36:12;4.90;99.90
7762;DHT22;3925;48.636;9.516;2023-02-01T03:38:47;4.80;99.90
7762;DHT22;3925;48.636;9.516;2023-02-01T03:41:20;4.80;99.90
7762;DHT22;3925;48.636;9.516;2023-02-01T03:43:53;4.80;99.90
7762;DHT22;3925;48.636;9.516;2023-02-01T03:46:27;4.80;99.90
7762;DHT22;3925;48.636;9.516;2023-02-01T03:49:00;4.70;99.90
7762;DHT22;3925;48.636;9.516;2023-02-01T03:51:31;4.90;99.90
7762;DHT22;3925;48.636;9.516;2023-02-01T03:53:59;4.70;99.90
7762;DHT22;3925;48.636;9.516;2023-02-01T03:56:29;4.70;99.90
7762;DHT22;3925;48.636;9.516;2023-02-01T03:58:57;4.80;99.90
7762;DHT22;3925;48.636;9.516;2023-02-01T04:01:26;4.80;99.90
7762;DHT22;3925;48.636;9.516;2023-02-01T04:03:53;4.80;99.90
7762;DHT22;3925;48.636;9.516;2023-02-01T04:06:21;4.80;99.90
7762;DHT22;3925;48.636;9.516;2023-02-01T04:08:49;4.80;99.90
7762;DHT22;3925;48.636;9.516;2023-02-01T04:11:16;4.80;99.90
7762;DHT22;3925;48.636;9.516;2023-02-01T04:13:43;4.80;99.90
7762;DHT22;3925;48.636;9.516;2023-02-01T04:16:10;4.70;99.90
7762;DHT22;3925;48.636;9.516;2023-02-01T04:18:37;4.70;99.90
7762;DHT22;3925;48.636;9.516;2023-02-01T04:21:05;4.80;99.90
7762;DHT22;3925;48.636;9.516;2023-02-01T04:23:32;4.80;99.90
7762;DHT22;3925;48.636;9.516;2023-02-01T04:26:01;4.80;99.90
7762;DHT22;3925;48.636;9.516;2023-02-01T04:28:28;4.90;99.90
7762;DHT22;3925;48.636;9.516;2023-02-01T04:30:55;4.90;99.90
7762;DHT22;3925;48.636;9.516;2023-02-01T04:33:22;4.90;99.90
7762;DHT22;3925;48.636;9.516;2023-02-01T04:35:49;4.90;99.90
7762;DHT22;3925;48.636;9.516;2023-02-01T04:38:16;4.90;99.90
7762;DHT22;3925;48.636;9.516;2023-02-01T04:40:43;4.90;99.90
7762;DHT22;3925;48.636;9.516;2023-02-01T04:43:11;4.90;99.90
7762;DHT22;3925;48.636;9.516;2023-02-01T04:45:38;5.00;99.90
7762;DHT22;3925;48.636;9.516;2023-02-01T04:48:05;5.00;99.90
7762;DHT22;3925;48.636;9.516;2023-02-01T04:50:32;5.00;99.90
7762;DHT22;3925;48.636;9.516;2023-02-01T04:52:59;5.00;99.90
7762;DHT22;3925;48.636;9.516;2023-02-01T04:55:26;5.10;99.90
7762;DHT22;3925;48.636;9.516;2023-02-01T04:57:53;5.00;99.90
7762;DHT22;3925;48.636;9.516;2023-02-01T05:00:22;5.00;99.90
7762;DHT22;3925;48.636;9.516;2023-02-01T05:02:50;5.10;99.90
7762;DHT22;3925;48.636;9.516;2023-02-01T05:05:17;5.00;99.90
7762;DHT22;3925;48.636;9.516;2023-02-01T05:07:45;5.00;99.90
7762;DHT22;3925;48.636;9.516;2023-02-01T05:10:12;4.90;99.90
7762;DHT22;3925;48.636;9.516;2023-02-01T05:12:38;4.90;99.90
7762;DHT22;3925;48.636;9.516;2023-02-01T05:15:24;5.00;99.90
7762;DHT22;3925;48.636;9.516;2023-02-01T05:17:51;5.00;99.90
7762;DHT22;3925;48.636;9.516;2023-02-01T05:20:18;5.00;99.90
7762;DHT22;3925;48.636;9.516;2023-02-01T05:22:45;5.00;99.90
7762;DHT22;3925;48.636;9.516;2023-02-01T05:25:12;5.00;99.90
7762;DHT22;3925;48.636;9.516;2023-02-01T05:27:39;5.00;99.90
7762;DHT22;3925;48.636;9.516;2023-02-01T05:30:06;5.00;99.90
7762;DHT22;3925;48.636;9.516;2023-02-01T05:32:35;5.00;99.90
7762;DHT22;3925;48.636;9.516;2023-02-01T05:35:03;5.00;99.90
7762;DHT22;3925;48.636;9.516;2023-02-01T05:37:29;5.00;99.90
7762;DHT22;3925;48.636;9.516;2023-02-01T05:39:56;5.00;99.90
7762;DHT22;3925;48.636;9.516;2023-02-01T05:42:23;5.00;99.90
7762;DHT22;3925;48.636;9.516;2023-02-01T05:44:50;5.00;99.90
7762;DHT22;3925;48.636;9.516;2023-02-01T05:47:17;4.90;99.90
7762;DHT22;3925;48.636;9.516;2023-02-01T05:49:47;5.00;99.90
7762;DHT22;3925;48.636;9.516;2023-02-01T05:52:13;5.00;99.90
7762;DHT22;3925;48.636;9.516;2023-02-01T05:54:44;5.00;99.90
7762;DHT22;3925;48.636;9.516;2023-02-01T05:57:11;5.00;99.90
7762;DHT22;3925;48.636;9.516;2023-02-01T05:59:38;5.10;99.90
7762;DHT22;3925;48.636;9.516;2023-02-01T06:02:07;5.10;99.90
7762;DHT22;3925;48.636;9.516;2023-02-01T06:04:35;5.10;99.90
7762;DHT22;3925;48.636;9.516;2023-02-01T06:07:03;5.10;99.90
7762;DHT22;3925;48.636;9.516;2023-02-01T06:09:31;5.10;99.90
7762;DHT22;3925;48.636;9.516;2023-02-01T06:11:58;5.00;99.90
7762;DHT22;3925;48.636;9.516;2023-02-01T06:14:24;5.00;99.90
7762;DHT22;3925;48.636;9.516;2023-02-01T06:16:51;5.10;99.90
7762;DHT22;3925;48.636;9.516;2023-02-01T06:19:18;5.10;99.90
7762;DHT22;3925;48.636;9.516;2023-02-01T06:21:45;5.10;99.90
7762;DHT22;3925;48.636;9.516;2023-02-01T06:24:14;5.00;99.90
7762;DHT22;3925;48.636;9.516;2023-02-01T06:26:40;4.90;99.90
7762;DHT22;3925;48.636;9.516;2023-02-01T06:29:09;4.90;99.90
7762;DHT22;3925;48.636;9.516;2023-02-01T06:31:36;4.80;99.90
7762;DHT22;3925;48.636;9.516;2023-02-01T06:34:03;4.80;99.90
7762;DHT22;3925;48.636;9.516;2023-02-01T06:36:30;4.80;99.90
7762;DHT22;3925;48.636;9.516;2023-02-01T06:38:57;4.70;99.90
7762;DHT22;3925;48.636;9.516;2023-02-01T06:41:26;4.70;99.90
7762;DHT22;3925;48.636;9.516;2023-02-01T06:43:53;4.70;99.90
7762;DHT22;3925;48.636;9.516;2023-02-01T06:46:20;4.60;99.90
7762;DHT22;3925;48.636;9.516;2023-02-01T06:48:47;4.60;99.90
7762;DHT22;3925;48.636;9.516;2023-02-01T06:51:20;4.60;99.90
7762;DHT22;3925;48.636;9.516;2023-02-01T06:53:48;4.70;99.90
7762;DHT22;3925;48.636;9.516;2023-02-01T06:56:15;4.70;99.90
7762;DHT22;3925;48.636;9.516;2023-02-01T06:58:44;4.70;99.90
7762;DHT22;3925;48.636;9.516;2023-02-01T07:01:11;4.80;99.90
7762;DHT22;3925;48.636;9.516;2023-02-01T07:03:39;4.80;99.90
7762;DHT22;3925;48.636;9.516;2023-02-01T07:06:06;4.90;99.90
7762;DHT22;3925;48.636;9.516;2023-02-01T07:08:35;4.80;99.90
7762;DHT22;3925;48.636;9.516;2023-02-01T07:11:03;4.80;99.90
7762;DHT22;3925;48.636;9.516;2023-02-01T07:13:30;4.80;99.90
7762;DHT22;3925;48.636;9.516;2023-02-01T07:16:02;4.90;99.90
7762;DHT22;3925;48.636;9.516;2023-02-01T07:18:30;4.90;99.90
7762;DHT22;3925;48.636;9.516;2023-02-01T07:20:57;4.90;99.90
7762;DHT22;3925;48.636;9.516;2023-02-01T07:23:25;5.00;99.90
7762;DHT22;3925;48.636;9.516;2023-02-01T07:25:56;5.00;99.90
7762;DHT22;3925;48.636;9.516;2023-02-01T07:28:23;5.00;99.90
7762;DHT22;3925;48.636;9.516;2023-02-01T07:30:50;5.00;99.90
7762;DHT22;3925;48.636;9.516;2023-02-01T07:33:20;5.00;99.90
7762;DHT22;3925;48.636;9.516;2023-02-01T07:35:47;5.00;99.90
7762;DHT22;3925;48.636;9.516;2023-02-01T07:38:15;5.00;99.90
7762;DHT22;3925;48.636;9.516;2023-02-01T07:40:42;5.10;99.90
7762;DHT22;3925;48.636;9.516;2023-02-01T07:43:09;5.10;99.90
7762;DHT22;3925;48.636;9.516;2023-02-01T07:45:36;5.10;99.90
7762;DHT22;3925;48.636;9.516;2023-02-01T07:48:03;5.20;99.90
7762;DHT22;3925;48.636;9.516;2023-02-01T07:50:31;5.20;99.90
7762;DHT22;3925;48.636;9.516;2023-02-01T07:52:59;5.20;99.90
7762;DHT22;3925;48.636;9.516;2023-02-01T07:55:26;5.20;99.90
7762;DHT22;3925;48.636;9.516;2023-02-01T07:57:57;5.20;99.90
7762;DHT22;3925;48.636;9.516;2023-02-01T08:00:24;5.20;99.90
7762;DHT22;3925;48.636;9.516;2023-02-01T08:03:08;5.30;99.90
7762;DHT22;3925;48.636;9.516;2023-02-01T08:05:36;5.30;99.90
7762;DHT22;3925;48.636;9.516;2023-02-01T08:08:04;5.20;99.90
7762;DHT22;3925;48.636;9.516;2023-02-01T08:10:31;5.30;99.90
7762;DHT22;3925;48.636;9.516;2023-02-01T08:12:58;5.30;99.90
7762;DHT22;3925;48.636;9.516;2023-02-01T08:15:25;5.30;99.90
7762;DHT22;3925;48.636;9.516;2023-02-01T08:17:53;5.30;99.90
7762;DHT22;3925;48.636;9.516;2023-02-01T08:20:21;5.30;99.90
7762;DHT22;3925;48.636;9.516;2023-02-01T08:22:50;5.30;99.90
7762;DHT22;3925;48.636;9.516;2023-02-01T08:25:16;5.50;99.90
7762;DHT22;3925;48.636;9.516;2023-02-01T08:27:43;5.50;99.90
7762;DHT22;3925;48.636;9.516;2023-02-01T08:30:11;5.40;99.90
7762;DHT22;3925;48.636;9.516;2023-02-01T08:32:38;5.40;99.90
7762;DHT22;3925;48.636;9.516;2023-02-01T08:35:06;5.50;99.90
7762;DHT22;3925;48.636;9.516;2023-02-01T08:37:33;5.50;99.90
7762;DHT22;3925;48.636;9.516;2023-02-01T08:40:02;5.50;99.90
7762;DHT22;3925;48.636;9.516;2023-02-01T08:42:28;5.50;99.90
7762;DHT22;3925;48.636;9.516;2023-02-01T08:45:13;5.50;99.90
7762;DHT22;3925;48.636;9.516;2023-02-01T08:47:40;5.60;99.90
7762;DHT22;3925;48.636;9.516;2023-02-01T08:50:08;5.50;99.90
7762;DHT22;3925;48.636;9.516;2023-02-01T08:52:35;5.50;99.90
7762;DHT22;3925;48.636;9.516;2023-02-01T08:55:04;5.50;99.90
7762;DHT22;3925;48.636;9.516;2023-02-01T08:57:31;5.40;99.90
7762;DHT22;3925;48.636;9.516;2023-02-01T08:59:58;5.40;99.90
7762;DHT22;3925;48.636;9.516;2023-02-01T09:02:25;5.50;99.90
7762;DHT22;3925;48.636;9.516;2023-02-01T09:04:52;5.50;99.90
7762;DHT22;3925;48.636;9.516;2023-02-01T09:07:19;5.40;99.90
7762;DHT22;3925;48.636;9.516;2023-02-01T09:09:46;5.50;99.90
7762;DHT22;3925;48.636;9.516;2023-02-01T09:12:14;5.60;99.90
7762;DHT22;3925;48.636;9.516;2023-02-01T09:14:41;5.70;99.90
7762;DHT22;3925;48.636;9.516;2023-02-01T09:17:08;5.80;99.90
7762;DHT22;3925;48.636;9.516;2023-02-01T09:19:35;5.90;99.90
7762;DHT22;3925;48.636;9.516;2023-02-01T09:22:02;5.90;99.90
7762;DHT22;3925;48.636;9.516;2023-02-01T09:24:29;5.70;99.90
7762;DHT22;3925;48.636;9.516;2023-02-01T09:26:56;5.70;99.90
7762;DHT22;3925;48.636;9.516;2023-02-01T09:29:24;5.70;99.90
7762;DHT22;3925;48.636;9.516;2023-02-01T09:31:51;5.70;99.90
7762;DHT22;3925;48.636;9.516;2023-02-01T09:34:18;5.80;99.90
7762;DHT22;3925;48.636;9.516;2023-02-01T09:36:45;5.70;99.90
7762;DHT22;3925;48.636;9.516;2023-02-01T09:39:12;5.60;99.90
7762;DHT22;3925;48.636;9.516;2023-02-01T09:41:47;5.70;99.90
7762;DHT22;3925;48.636;9.516;2023-02-01T09:44:27;5.70;99.90
7762;DHT22;3925;48.636;9.516;2023-02-01T09:46:59;5.70;99.90
7762;DHT22;3925;48.636;9.516;2023-02-01T09:49:29;5.70;99.90
7762;DHT22;3925;48.636;9.516;2023-02-01T09:51:56;5.60;99.90
7762;DHT22;3925;48.636;9.516;2023-02-01T09:54:26;5.60;99.90
7762;DHT22;3925;48.636;9.516;2023-02-01T09:56:58;5.60;99.90
7762;DHT22;3925;48.636;9.516;2023-02-01T09:59:32;5.60;99.90
7762;DHT22;3925;48.636;9.516;2023-02-01T10:02:03;5.50;99.90
7762;DHT22;3925;48.636;9.516;2023-02-01T10:04:31;5.50;99.90
7762;DHT22;3925;48.636;9.516;2023-02-01T10:07:12;5.50;99.90
7762;DHT22;3925;48.636;9.516;2023-02-01T10:09:52;5.60;99.90
7762;DHT22;3925;48.636;9.516;2023-02-01T10:15:40;5.70;99.90
7762;DHT22;3925;48.636;9.516;2023-02-01T10:18:29;5.70;99.90
7762;DHT22;3925;48.636;9.516;2023-02-01T10:21:07;5.70;99.90
7762;DHT22;3925;48.636;9.516;2023-02-01T10:23:50;5.80;99.90
7762;DHT22;3925;48.636;9.516;2023-02-01T10:26:25;5.90;99.90
7762;DHT22;3925;48.636;9.516;2023-02-01T10:28:54;5.90;99.90
7762;DHT22;3925;48.636;9.516;2023-02-01T10:31:25;5.90;99.90
7762;DHT22;3925;48.636;9.516;2023-02-01T10:33:56;5.90;99.90
7762;DHT22;3925;48.636;9.516;2023-02-01T10:36:29;5.90;99.90
7762;DHT22;3925;48.636;9.516;2023-02-01T10:38:57;5.90;99.90
7762;DHT22;3925;48.636;9.516;2023-02-01T10:41:30;6.00;99.90
7762;DHT22;3925;48.636;9.516;2023-02-01T10:43:58;6.10;99.90
7762;DHT22;3925;48.636;9.516;2023-02-01T10:46:29;6.20;99.90
7762;DHT22;3925;48.636;9.516;2023-02-01T10:48:58;6.10;99.90
7762;DHT22;3925;48.636;9.516;2023-02-01T10:51:29;6.20;99.90
7762;DHT22;3925;48.636;9.516;2023-02-01T10:54:00;6.20;99.90
7762;DHT22;3925;48.636;9.516;2023-02-01T10:56:28;6.20;99.90
7762;DHT22;3925;48.636;9.516;2023-02-01T10:59:00;6.10;99.90
7762;DHT22;3925;48.636;9.516;2023-02-01T11:01:31;6.10;99.90
7762;DHT22;3925;48.636;9.516;2023-02-01T11:04:01;6.10;99.90
7762;DHT22;3925;48.636;9.516;2023-02-01T11:06:31;6.10;99.90
7762;DHT22;3925;48.636;9.516;2023-02-01T11:09:08;6.00;99.90
7762;DHT22;3925;48.636;9.516;2023-02-01T11:11:55;6.20;99.90
7762;DHT22;3925;48.636;9.516;2023-02-01T11:14:27;6.10;99.90
7762;DHT22;3925;48.636;9.516;2023-02-01T11:17:01;6.10;99.90
7762;DHT22;3925;48.636;9.516;2023-02-01T11:19:31;6.10;99.90
7762;DHT22;3925;48.636;9.516;2023-02-01T11:21:59;6.20;99.90
7762;DHT22;3925;48.636;9.516;2023-02-01T11:24:28;6.20;99.90
7762;DHT22;3925;48.636;9.516;2023-02-01T11:26:56;6.10;99.90
7762;DHT22;3925;48.636;9.516;2023-02-01T11:29:24;6.10;99.90
7762;DHT22;3925;48.636;9.516;2023-02-01T11:31:56;6.20;99.90
7762;DHT22;3925;48.636;9.516;2023-02-01T11:34:36;6.20;99.90
7762;DHT22;3925;48.636;9.516;2023-02-01T11:37:03;6.20;99.90
7762;DHT22;3925;48.636;9.516;2023-02-01T11:39:31;6.30;99.90
7762;DHT22;3925;48.636;9.516;2023-02-01T11:42:02;6.30;99.90
7762;DHT22;3925;48.636;9.516;2023-02-01T11:44:33;6.30;99.90
7762;DHT22;3925;48.636;9.516;2023-02-01T11:47:20;6.40;99.90
7762;DHT22;3925;48.636;9.516;2023-02-01T11:49:50;6.40;99.90
7762;DHT22;3925;48.636;9.516;2023-02-01T11:52:29;6.30;99.90
7762;DHT22;3925;48.636;9.516;2023-02-01T11:55:10;6.30;99.90
7762;DHT22;3925;48.636;9.516;2023-02-01T11:57:51;6.40;99.90
7762;DHT22;3925;48.636;9.516;2023-02-01T12:00:44;6.40;99.90
7762;DHT22;3925;48.636;9.516;2023-02-01T12:06:25;6.60;99.90
7762;DHT22;3925;48.636;9.516;2023-02-01T12:09:12;6.50;99.90
7762;DHT22;3925;48.636;9.516;2023-02-01T12:11:52;6.50;99.90
7762;DHT22;3925;48.636;9.516;2023-02-01T12:14:35;6.60;99.90
7762;DHT22;3925;48.636;9.516;2023-02-01T12:17:27;6.60;99.90
7762;DHT22;3925;48.636;9.516;2023-02-01T12:20:12;6.50;99.90
7762;DHT22;3925;48.636;9.516;2023-02-01T12:22:54;6.50;99.90
7762;DHT22;3925;48.636;9.516;2023-02-01T12:25:40;6.50;99.90
7762;DHT22;3925;48.636;9.516;2023-02-01T12:28:33;6.50;99.90
7762;DHT22;3925;48.636;9.516;2023-02-01T12:31:35;6.50;99.90
7762;DHT22;3925;48.636;9.516;2023-02-01T12:34:21;6.60;99.90
7762;DHT22;3925;48.636;9.516;2023-02-01T12:36:58;6.50;99.90
7762;DHT22;3925;48.636;9.516;2023-02-01T12:39:31;6.50;99.90
7762;DHT22;3925;48.636;9.516;2023-02-01T12:42:02;6.40;99.90
7762;DHT22;3925;48.636;9.516;2023-02-01T12:44:39;6.40;99.90
7762;DHT22;3925;48.636;9.516;2023-02-01T12:47:14;6.40;99.90
7762;DHT22;3925;48.636;9.516;2023-02-01T12:49:51;6.40;99.90
7762;DHT22;3925;48.636;9.516;2023-02-01T12:52:23;6.40;99.90
7762;DHT22;3925;48.636;9.516;2023-02-01T12:54:57;6.40;99.90
7762;DHT22;3925;48.636;9.516;2023-02-01T12:57:30;6.40;99.90
7762;DHT22;3925;48.636;9.516;2023-02-01T13:00:05;6.40;99.90
7762;DHT22;3925;48.636;9.516;2023-02-01T13:02:39;6.40;99.90
7762;DHT22;3925;48.636;9.516;2023-02-01T13:05:14;6.30;99.90
7762;DHT22;3925;48.636;9.516;2023-02-01T13:07:47;6.30;99.90
7762;DHT22;3925;48.636;9.516;2023-02-01T13:10:20;6.30;99.90
7762;DHT22;3925;48.636;9.516;2023-02-01T13:12:53;6.30;99.90
7762;DHT22;3925;48.636;9.516;2023-02-01T13:15:24;6.20;99.90
7762;DHT22;3925;48.636;9.516;2023-02-01T13:17:55;6.10;99.90
7762;DHT22;3925;48.636;9.516;2023-02-01T13:20:29;6.20;99.90
7762;DHT22;3925;48.636;9.516;2023-02-01T13:23:00;6.20;99.90
7762;DHT22;3925;48.636;9.516;2023-02-01T13:25:35;6.30;99.90
7762;DHT22;3925;48.636;9.516;2023-02-01T13:28:06;6.20;99.90
7762;DHT22;3925;48.636;9.516;2023-02-01T13:30:47;6.20;99.90
7762;DHT22;3925;48.636;9.516;2023-02-01T13:36:44;6.30;99.90
7762;DHT22;3925;48.636;9.516;2023-02-01T13:42:16;6.20;99.90
7762;DHT22;3925;48.636;9.516;2023-02-01T13:44:46;6.20;99.90
7762;DHT22;3925;48.636;9.516;2023-02-01T13:47:24;6.30;99.90
7762;DHT22;3925;48.636;9.516;2023-02-01T13:49:54;6.30;99.90
7762;DHT22;3925;48.636;9.516;2023-02-01T13:52:29;6.30;99.90
7762;DHT22;3925;48.636;9.516;2023-02-01T13:55:28;6.20;99.90
7762;DHT22;3925;48.636;9.516;2023-02-01T13:58:10;6.10;99.90
7762;DHT22;3925;48.636;9.516;2023-02-01T14:00:39;6.10;99.90
7762;DHT22;3925;48.636;9.516;2023-02-01T14:03:12;6.10;99.90
7762;DHT22;3925;48.636;9.516;2023-02-01T14:06:05;6.20;99.90
7762;DHT22;3925;48.636;9.516;2023-02-01T14:08:43;6.20;99.90
7762;DHT22;3925;48.636;9.516;2023-02-01T14:11:40;6.10;99.90
7762;DHT22;3925;48.636;9.516;2023-02-01T14:17:36;6.00;99.90
7762;DHT22;3925;48.636;9.516;2023-02-01T14:23:39;6.00;99.90
7762;DHT22;3925;48.636;9.516;2023-02-01T14:26:18;5.90;99.90
7762;DHT22;3925;48.636;9.516;2023-02-01T14:29:01;5.90;99.90
7762;DHT22;3925;48.636;9.516;2023-02-01T14:31:40;5.90;99.90
7762;DHT22;3925;48.636;9.516;2023-02-01T14:34:21;5.80;99.90
7762;DHT22;3925;48.636;9.516;2023-02-01T14:36:52;5.90;99.90
7762;DHT22;3925;48.636;9.516;2023-02-01T14:39:30;5.80;99.90
7762;DHT22;3925;48.636;9.516;2023-02-01T14:42:01;5.90;99.90
7762;DHT22;3925;48.636;9.516;2023-02-01T14:44:33;5.90;99.90
7762;DHT22;3925;48.636;9.516;2023-02-01T14:53:18;5.90;99.90
7762;DHT22;3925;48.636;9.516;2023-02-01T14:55:49;5.90;99.90
7762;DHT22;3925;48.636;9.516;2023-02-01T14:58:35;5.90;99.90
7762;DHT22;3925;48.636;9.516;2023-02-01T15:01:05;5.90;99.90
7762;DHT22;3925;48.636;9.516;2023-02-01T15:03:48;6.00;99.90
7762;DHT22;3925;48.636;9.516;2023-02-01T15:06:24;6.00;99.90
7762;DHT22;3925;48.636;9.516;2023-02-01T15:08:55;6.00;99.90
7762;DHT22;3925;48.636;9.516;2023-02-01T15:11:22;6.00;99.90
7762;DHT22;3925;48.636;9.516;2023-02-01T15:13:51;6.00;99.90
7762;DHT22;3925;48.636;9.516;2023-02-01T15:16:21;6.00;99.90
7762;DHT22;3925;48.636;9.516;2023-02-01T15:18:49;5.90;99.90
7762;DHT22;3925;48.636;9.516;2023-02-01T15:21:20;6.00;99.90
7762;DHT22;3925;48.636;9.516;2023-02-01T15:23:48;6.00;99.90
7762;DHT22;3925;48.636;9.516;2023-02-01T15:26:27;6.00;99.90
7762;DHT22;3925;48.636;9.516;2023-02-01T15:28:55;6.00;99.90
7762;DHT22;3925;48.636;9.516;2023-02-01T15:31:34;5.90;99.90
7762;DHT22;3925;48.636;9.516;2023-02-01T15:34:01;6.00;99.90
7762;DHT22;3925;48.636;9.516;2023-02-01T15:36:29;5.90;99.90
7762;DHT22;3925;48.636;9.516;2023-02-01T15:39:19;6.00;99.90
7762;DHT22;3925;48.636;9.516;2023-02-01T15:41:50;6.00;99.90
7762;DHT22;3925;48.636;9.516;2023-02-01T15:44:27;6.00;99.90
7762;DHT22;3925;48.636;9.516;2023-02-01T15:46:55;6.00;99.90
7762;DHT22;3925;48.636;9.516;2023-02-01T15:49:27;6.00;99.90
7762;DHT22;3925;48.636;9.516;2023-02-01T15:51:57;6.00;99.90
7762;DHT22;3925;48.636;9.516;2023-02-01T15:54:26;6.00;99.90
7762;DHT22;3925;48.636;9.516;2023-02-01T15:56:59;5.90;99.90
7762;DHT22;3925;48.636;9.516;2023-02-01T15:59:31;5.90;99.90
7762;DHT22;3925;48.636;9.516;2023-02-01T16:01:59;5.90;99.90
7762;DHT22;3925;48.636;9.516;2023-02-01T16:04:27;5.90;99.90
7762;DHT22;3925;48.636;9.516;2023-02-01T16:06:58;5.90;99.90
7762;DHT22;3925;48.636;9.516;2023-02-01T16:09:37;5.90;99.90
7762;DHT22;3925;48.636;9.516;2023-02-01T16:12:23;5.90;99.90
7762;DHT22;3925;48.636;9.516;2023-02-01T16:14:53;5.70;99.90
7762;DHT22;3925;48.636;9.516;2023-02-01T16:17:20;5.70;99.90
7762;DHT22;3925;48.636;9.516;2023-02-01T16:19:47;5.70;99.90
7762;DHT22;3925;48.636;9.516;2023-02-01T16:22:15;5.70;99.90
7762;DHT22;3925;48.636;9.516;2023-02-01T16:24:42;5.70;99.90
7762;DHT22;3925;48.636;9.516;2023-02-01T16:27:09;5.70;99.90
7762;DHT22;3925;48.636;9.516;2023-02-01T16:29:36;5.70;99.90
7762;DHT22;3925;48.636;9.516;2023-02-01T16:32:03;5.70;99.90
7762;DHT22;3925;48.636;9.516;2023-02-01T16:34:30;5.70;99.90
7762;DHT22;3925;48.636;9.516;2023-02-01T16:36:58;5.70;99.90
7762;DHT22;3925;48.636;9.516;2023-02-01T16:39:27;5.70;99.90
7762;DHT22;3925;48.636;9.516;2023-02-01T16:41:54;5.60;99.90
7762;DHT22;3925;48.636;9.516;2023-02-01T16:44:21;5.70;99.90
7762;DHT22;3925;48.636;9.516;2023-02-01T16:46:48;5.70;99.90
7762;DHT22;3925;48.636;9.516;2023-02-01T16:49:18;5.60;99.90
7762;DHT22;3925;48.636;9.516;2023-02-01T16:51:45;5.60;99.90
7762;DHT22;3925;48.636;9.516;2023-02-01T16:54:14;5.60;99.90
7762;DHT22;3925;48.636;9.516;2023-02-01T16:56:42;5.60;99.90
7762;DHT22;3925;48.636;9.516;2023-02-01T16:59:10;5.70;99.90
7762;DHT22;3925;48.636;9.516;2023-02-01T17:01:38;5.70;99.90
7762;DHT22;3925;48.636;9.516;2023-02-01T17:04:07;5.70;99.90
7762;DHT22;3925;48.636;9.516;2023-02-01T17:06:35;5.70;99.90
7762;DHT22;3925;48.636;9.516;2023-02-01T17:09:04;5.70;99.90
7762;DHT22;3925;48.636;9.516;2023-02-01T17:11:31;5.70;99.90